sensor_id;sensor_type;location;lat;lon;timestamp;pressure;altitude;pressure_sealevel;temperature;humidity
20793;BME280;10556;-33.662;151.094;2024-03-25T00:03:26;99515.44;;;30.15;67.63
20793;BME280;10556;-33.662;151.094;2024-03-25T00:08:28;99514.59;;;30.08;66.47
20793;BME280;10556;-33.662;151.094;2024-03-25T00:13:33;99501.78;;;30.53;63.07
20793;BME280;10556;-33.662;151.094;2024-03-25T00:18:36;99501.56;;;31.13;58.45
20793;BME280;10556;-33.662;151.094;2024-03-25T00:23:38;99489.41;;;30.99;57.71
20793;BME280;10556;-33.662;151.094;2024-03-25T00:28:43;99487.59;;;31.26;55.08
20793;BME280;10556;-33.662;151.094;2024-03-25T00:33:46;99485.28;;;31.49;53.92
20793;BME280;10556;-33.662;151.094;2024-03-25T00:38:48;99478.63;;;31.91;52.34
20793;BME280;10556;-33.662;151.094;2024-03-25T00:43:53;99472.06;;;32.38;50.42
20793;BME280;10556;-33.662;151.094;2024-03-25T00:48:56;99459.72;;;33.25;46.12
20793;BME280;10556;-33.662;151.094;2024-03-25T00:53:59;99459.88;;;32.69;47.32
20793;BME280;10556;-33.662;151.094;2024-03-25T00:59:03;99461.53;;;32.88;43.64
20793;BME280;10556;-33.662;151.094;2024-03-25T01:04:06;99449.41;;;32.80;45.66
20793;BME280;10556;-33.662;151.094;2024-03-25T01:09:09;99445.06;;;32.86;45.79
20793;BME280;10556;-33.662;151.094;2024-03-25T01:14:14;99442.31;;;32.99;44.39
20793;BME280;10556;-33.662;151.094;2024-03-25T01:19:17;99436.94;;;33.60;43.30
20793;BME280;10556;-33.662;151.094;2024-03-25T01:24:21;99434.19;;;33.37;42.99
20793;BME280;10556;-33.662;151.094;2024-03-25T01:29:25;99423.84;;;33.36;42.67
20793;BME280;10556;-33.662;151.094;2024-03-25T01:34:28;99420.94;;;32.82;42.94
20793;BME280;10556;-33.662;151.094;2024-03-25T01:39:32;99416.34;;;32.96;41.47
20793;BME280;10556;-33.662;151.094;2024-03-25T01:44:37;99408.84;;;32.93;38.01
20793;BME280;10556;-33.662;151.094;2024-03-25T01:49:40;99405.41;;;33.47;38.08
20793;BME280;10556;-33.662;151.094;2024-03-25T01:54:43;99408.72;;;33.24;36.83
20793;BME280;10556;-33.662;151.094;2024-03-25T01:59:48;99398.63;;;33.69;35.94
20793;BME280;10556;-33.662;151.094;2024-03-25T02:04:51;99391.13;;;33.48;37.08
20793;BME280;10556;-33.662;151.094;2024-03-25T02:09:54;99388.06;;;33.15;37.43
20793;BME280;10556;-33.662;151.094;2024-03-25T02:14:59;99369.97;;;33.00;37.45
20793;BME280;10556;-33.662;151.094;2024-03-25T02:20:02;99362.88;;;34.43;34.72
20793;BME280;10556;-33.662;151.094;2024-03-25T02:25:07;99357.66;;;34.95;33.92
20793;BME280;10556;-33.662;151.094;2024-03-25T02:30:14;99352.97;;;34.27;28.20
20793;BME280;10556;-33.662;151.094;2024-03-25T02:35:17;99337.06;;;34.15;31.29
20793;BME280;10556;-33.662;151.094;2024-03-25T02:40:21;99337.38;;;33.96;31.71
20793;BME280;10556;-33.662;151.094;2024-03-25T02:45:26;99317.38;;;34.11;29.05
20793;BME280;10556;-33.662;151.094;2024-03-25T02:50:29;99309.25;;;34.36;30.01
20793;BME280;10556;-33.662;151.094;2024-03-25T02:55:32;99305.31;;;34.15;29.70
20793;BME280;10556;-33.662;151.094;2024-03-25T03:00:36;99292.88;;;33.81;30.48
20793;BME280;10556;-33.662;151.094;2024-03-25T03:05:39;99286.56;;;34.05;29.53
20793;BME280;10556;-33.662;151.094;2024-03-25T03:10:42;99278.50;;;34.12;27.99
20793;BME280;10556;-33.662;151.094;2024-03-25T03:15:47;99272.34;;;34.18;30.32
20793;BME280;10556;-33.662;151.094;2024-03-25T03:20:50;99276.19;;;33.69;30.82
20793;BME280;10556;-33.662;151.094;2024-03-25T03:25:52;99271.03;;;33.97;29.42
20793;BME280;10556;-33.662;151.094;2024-03-25T03:30:58;99263.66;;;34.34;28.49
20793;BME280;10556;-33.662;151.094;2024-03-25T03:36:00;99255.63;;;34.41;28.49
20793;BME280;10556;-33.662;151.094;2024-03-25T03:41:04;99254.00;;;34.51;28.01
20793;BME280;10556;-33.662;151.094;2024-03-25T03:46:09;99255.50;;;34.01;28.34
20793;BME280;10556;-33.662;151.094;2024-03-25T03:51:12;99248.72;;;34.40;26.67
20793;BME280;10556;-33.662;151.094;2024-03-25T03:56:14;99244.81;;;34.07;26.60
20793;BME280;10556;-33.662;151.094;2024-03-25T04:01:21;99231.97;;;34.63;25.50
20793;BME280;10556;-33.662;151.094;2024-03-25T04:06:25;99231.69;;;33.78;26.76
20793;BME280;10556;-33.662;151.094;2024-03-25T04:11:29;99222.75;;;33.90;26.14
20793;BME280;10556;-33.662;151.094;2024-03-25T04:16:34;99220.91;;;33.91;26.09
20793;BME280;10556;-33.662;151.094;2024-03-25T04:21:36;99219.66;;;34.56;25.61
20793;BME280;10556;-33.662;151.094;2024-03-25T04:26:39;99214.63;;;33.39;26.02
20793;BME280;10556;-33.662;151.094;2024-03-25T04:31:44;99215.69;;;33.61;27.11
20793;BME280;10556;-33.662;151.094;2024-03-25T04:36:50;99212.16;;;34.13;26.11
20793;BME280;10556;-33.662;151.094;2024-03-25T04:41:54;99208.72;;;33.90;24.53
20793;BME280;10556;-33.662;151.094;2024-03-25T04:46:59;99212.13;;;33.55;24.45
20793;BME280;10556;-33.662;151.094;2024-03-25T04:52:01;99211.38;;;33.25;25.45
20793;BME280;10556;-33.662;151.094;2024-03-25T04:57:04;99216.03;;;32.81;25.69
20793;BME280;10556;-33.662;151.094;2024-03-25T05:02:10;99201.31;;;33.45;26.59
20793;BME280;10556;-33.662;151.094;2024-03-25T05:07:13;99195.25;;;34.14;25.61
20793;BME280;10556;-33.662;151.094;2024-03-25T05:12:15;99192.75;;;33.85;24.76
20793;BME280;10556;-33.662;151.094;2024-03-25T05:17:22;99203.84;;;33.63;25.46
20793;BME280;10556;-33.662;151.094;2024-03-25T05:22:26;99195.91;;;32.99;26.47
20793;BME280;10556;-33.662;151.094;2024-03-25T05:27:29;99194.16;;;32.93;26.66
20793;BME280;10556;-33.662;151.094;2024-03-25T05:32:34;99199.56;;;32.98;25.60
20793;BME280;10556;-33.662;151.094;2024-03-25T05:37:37;99193.53;;;32.42;26.03
20793;BME280;10556;-33.662;151.094;2024-03-25T05:42:40;99185.50;;;32.19;27.90
20793;BME280;10556;-33.662;151.094;2024-03-25T05:47:45;99193.19;;;32.39;27.17
20793;BME280;10556;-33.662;151.094;2024-03-25T05:52:47;99198.09;;;32.35;26.03
20793;BME280;10556;-33.662;151.094;2024-03-25T05:57:50;99193.56;;;31.81;27.29
20793;BME280;10556;-33.662;151.094;2024-03-25T06:02:55;99194.84;;;31.47;26.59
20793;BME280;10556;-33.662;151.094;2024-03-25T06:07:59;99193.53;;;30.62;47.30
20793;BME280;10556;-33.662;151.094;2024-03-25T06:13:01;99197.97;;;29.78;53.24
20793;BME280;10556;-33.662;151.094;2024-03-25T06:18:06;99196.97;;;28.79;59.18
20793;BME280;10556;-33.662;151.094;2024-03-25T06:23:09;99194.84;;;27.86;62.07
20793;BME280;10556;-33.662;151.094;2024-03-25T06:28:12;99197.03;;;27.33;69.07
20793;BME280;10556;-33.662;151.094;2024-03-25T06:33:16;99199.91;;;26.66;80.32
20793;BME280;10556;-33.662;151.094;2024-03-25T06:38:20;99198.31;;;26.21;84.51
20793;BME280;10556;-33.662;151.094;2024-03-25T06:43:22;99206.25;;;25.90;87.10
20793;BME280;10556;-33.662;151.094;2024-03-25T06:48:28;99211.53;;;25.68;92.37
20793;BME280;10556;-33.662;151.094;2024-03-25T06:53:31;99217.28;;;25.40;92.03
20793;BME280;10556;-33.662;151.094;2024-03-25T06:58:34;99223.03;;;25.05;92.29
20793;BME280;10556;-33.662;151.094;2024-03-25T07:03:39;99221.03;;;24.84;96.87
20793;BME280;10556;-33.662;151.094;2024-03-25T07:08:42;99229.59;;;24.62;100.00
20793;BME280;10556;-33.662;151.094;2024-03-25T07:13:45;99221.72;;;24.23;100.00
20793;BME280;10556;-33.662;151.094;2024-03-25T07:18:52;99225.34;;;23.81;100.00
20793;BME280;10556;-33.662;151.094;2024-03-25T07:23:55;99238.16;;;23.42;100.00
20793;BME280;10556;-33.662;151.094;2024-03-25T07:29:00;99243.94;;;23.12;100.00
20793;BME280;10556;-33.662;151.094;2024-03-25T07:34:06;99243.22;;;22.78;100.00
20793;BME280;10556;-33.662;151.094;2024-03-25T07:39:08;99254.31;;;22.62;100.00
20793;BME280;10556;-33.662;151.094;2024-03-25T07:44:15;99254.28;;;22.54;100.00
20793;BME280;10556;-33.662;151.094;2024-03-25T07:49:20;99258.53;;;22.29;100.00
20793;BME280;10556;-33.662;151.094;2024-03-25T07:54:23;99268.38;;;22.00;100.00
20793;BME280;10556;-33.662;151.094;2024-03-25T07:59:26;99270.25;;;21.72;100.00
20793;BME280;10556;-33.662;151.094;2024-03-25T08:04:31;99275.84;;;21.50;100.00
20793;BME280;10556;-33.662;151.094;2024-03-25T08:09:34;99284.59;;;21.31;100.00
20793;BME280;10556;-33.662;151.094;2024-03-25T08:14:37;99288.50;;;21.08;100.00
20793;BME280;10556;-33.662;151.094;2024-03-25T08:19:43;99281.47;;;21.00;100.00
20793;BME280;10556;-33.662;151.094;2024-03-25T08:24:45;99287.00;;;20.78;100.00
20793;BME280;10556;-33.662;151.094;2024-03-25T08:29:49;99292.13;;;20.60;100.00
20793;BME280;10556;-33.662;151.094;2024-03-25T08:34:53;99291.44;;;20.58;100.00
20793;BME280;10556;-33.662;151.094;2024-03-25T08:39:56;99291.31;;;20.60;100.00
20793;BME280;10556;-33.662;151.094;2024-03-25T08:44:59;99300.97;;;20.67;100.00
20793;BME280;10556;-33.662;151.094;2024-03-25T08:50:06;99302.44;;;20.79;100.00
20793;BME280;10556;-33.662;151.094;2024-03-25T08:55:08;99314.81;;;20.85;100.00
20793;BME280;10556;-33.662;151.094;2024-03-25T09:00:12;99318.81;;;20.70;100.00
20793;BME280;10556;-33.662;151.094;2024-03-25T09:05:20;99329.25;;;20.41;100.00
20793;BME280;10556;-33.662;151.094;2024-03-25T09:10:25;99339.06;;;20.28;100.00
20793;BME280;10556;-33.662;151.094;2024-03-25T09:15:28;99348.72;;;20.26;100.00
20793;BME280;10556;-33.662;151.094;2024-03-25T09:20:32;99353.50;;;20.21;100.00
20793;BME280;10556;-33.662;151.094;2024-03-25T09:25:35;99361.97;;;20.33;100.00
20793;BME280;10556;-33.662;151.094;2024-03-25T09:30:38;99363.59;;;20.34;100.00
20793;BME280;10556;-33.662;151.094;2024-03-25T09:35:44;99370.94;;;20.38;100.00
20793;BME280;10556;-33.662;151.094;2024-03-25T09:40:46;99373.25;;;20.41;100.00
20793;BME280;10556;-33.662;151.094;2024-03-25T09:45:50;99378.44;;;20.41;100.00
20793;BME280;10556;-33.662;151.094;2024-03-25T09:50:56;99383.59;;;20.61;100.00
20793;BME280;10556;-33.662;151.094;2024-03-25T09:55:59;99386.06;;;20.53;100.00
20793;BME280;10556;-33.662;151.094;2024-03-25T10:01:02;99389.63;;;20.42;100.00
20793;BME280;10556;-33.662;151.094;2024-03-25T10:06:07;99399.69;;;20.35;100.00
20793;BME280;10556;-33.662;151.094;2024-03-25T10:11:10;99408.38;;;20.25;100.00
20793;BME280;10556;-33.662;151.094;2024-03-25T10:16:13;99403.91;;;20.08;100.00
20793;BME280;10556;-33.662;151.094;2024-03-25T10:21:20;99415.72;;;20.10;100.00
20793;BME280;10556;-33.662;151.094;2024-03-25T10:26:27;99421.44;;;19.94;100.00
20793;BME280;10556;-33.662;151.094;2024-03-25T10:31:30;99414.22;;;19.88;100.00
20793;BME280;10556;-33.662;151.094;2024-03-25T10:36:35;99424.28;;;19.91;100.00
20793;BME280;10556;-33.662;151.094;2024-03-25T10:41:38;99430.66;;;19.78;100.00
20793;BME280;10556;-33.662;151.094;2024-03-25T10:46:42;99435.47;;;19.52;100.00
20793;BME280;10556;-33.662;151.094;2024-03-25T10:51:49;99436.63;;;19.38;100.00
20793;BME280;10556;-33.662;151.094;2024-03-25T10:56:54;99441.31;;;19.44;100.00
20793;BME280;10556;-33.662;151.094;2024-03-25T11:01:56;99439.31;;;19.27;100.00
20793;BME280;10556;-33.662;151.094;2024-03-25T11:07:11;99448.19;;;19.04;100.00
20793;BME280;10556;-33.662;151.094;2024-03-25T11:12:14;99446.06;;;18.88;100.00
20793;BME280;10556;-33.662;151.094;2024-03-25T11:17:17;99443.25;;;18.80;100.00
20793;BME280;10556;-33.662;151.094;2024-03-25T11:22:25;99445.44;;;18.75;100.00
20793;BME280;10556;-33.662;151.094;2024-03-25T11:27:28;99443.84;;;18.84;100.00
20793;BME280;10556;-33.662;151.094;2024-03-25T11:32:40;99442.28;;;19.23;100.00
20793;BME280;10556;-33.662;151.094;2024-03-25T11:37:46;99448.84;;;19.27;100.00
20793;BME280;10556;-33.662;151.094;2024-03-25T11:42:49;99461.66;;;18.87;100.00
20793;BME280;10556;-33.662;151.094;2024-03-25T11:47:52;99456.09;;;18.39;100.00
20793;BME280;10556;-33.662;151.094;2024-03-25T11:52:57;99459.34;;;18.20;100.00
20793;BME280;10556;-33.662;151.094;2024-03-25T11:57:59;99460.06;;;18.22;100.00
20793;BME280;10556;-33.662;151.094;2024-03-25T12:03:03;99459.22;;;18.21;100.00
20793;BME280;10556;-33.662;151.094;2024-03-25T12:08:08;99461.31;;;18.27;100.00
20793;BME280;10556;-33.662;151.094;2024-03-25T12:13:11;99451.50;;;18.21;100.00
20793;BME280;10556;-33.662;151.094;2024-03-25T12:18:14;99465.94;;;18.13;100.00
20793;BME280;10556;-33.662;151.094;2024-03-25T12:23:18;99472.16;;;18.10;100.00
20793;BME280;10556;-33.662;151.094;2024-03-25T12:28:22;99469.22;;;18.04;100.00
20793;BME280;10556;-33.662;151.094;2024-03-25T12:33:25;99457.41;;;17.90;100.00
20793;BME280;10556;-33.662;151.094;2024-03-25T12:38:31;99465.84;;;18.03;100.00
20793;BME280;10556;-33.662;151.094;2024-03-25T12:43:34;99475.06;;;18.17;100.00
20793;BME280;10556;-33.662;151.094;2024-03-25T12:48:37;99467.06;;;18.31;100.00
20793;BME280;10556;-33.662;151.094;2024-03-25T12:53:42;99461.75;;;18.33;100.00
20793;BME280;10556;-33.662;151.094;2024-03-25T12:58:44;99472.16;;;18.42;100.00
20793;BME280;10556;-33.662;151.094;2024-03-25T13:03:47;99469.22;;;18.47;100.00
20793;BME280;10556;-33.662;151.094;2024-03-25T13:08:52;99463.09;;;18.48;100.00
20793;BME280;10556;-33.662;151.094;2024-03-25T13:13:55;99458.94;;;18.36;100.00
20793;BME280;10556;-33.662;151.094;2024-03-25T13:18:58;99451.97;;;18.15;100.00
20793;BME280;10556;-33.662;151.094;2024-03-25T13:24:02;99450.47;;;18.13;100.00
20793;BME280;10556;-33.662;151.094;2024-03-25T13:29:05;99449.06;;;18.09;100.00
20793;BME280;10556;-33.662;151.094;2024-03-25T13:34:08;99450.31;;;18.14;100.00
20793;BME280;10556;-33.662;151.094;2024-03-25T13:39:12;99447.63;;;18.16;100.00
20793;BME280;10556;-33.662;151.094;2024-03-25T13:44:15;99444.97;;;18.06;100.00
20793;BME280;10556;-33.662;151.094;2024-03-25T13:49:18;99443.47;;;17.93;100.00
20793;BME280;10556;-33.662;151.094;2024-03-25T13:54:22;99444.22;;;17.83;100.00
20793;BME280;10556;-33.662;151.094;2024-03-25T13:59:25;99440.44;;;17.76;100.00
20793;BME280;10556;-33.662;151.094;2024-03-25T14:04:28;99445.16;;;17.60;100.00
20793;BME280;10556;-33.662;151.094;2024-03-25T14:09:32;99436.94;;;17.44;100.00
20793;BME280;10556;-33.662;151.094;2024-03-25T14:14:35;99444.66;;;17.22;100.00
20793;BME280;10556;-33.662;151.094;2024-03-25T14:19:38;99438.31;;;17.04;100.00
20793;BME280;10556;-33.662;151.094;2024-03-25T14:24:42;99436.41;;;16.72;100.00
20793;BME280;10556;-33.662;151.094;2024-03-25T14:29:45;99435.44;;;16.62;100.00
20793;BME280;10556;-33.662;151.094;2024-03-25T14:34:48;99435.66;;;16.59;100.00
20793;BME280;10556;-33.662;151.094;2024-03-25T14:39:53;99435.34;;;16.64;100.00
20793;BME280;10556;-33.662;151.094;2024-03-25T14:44:56;99436.09;;;16.88;100.00
20793;BME280;10556;-33.662;151.094;2024-03-25T14:49:58;99443.69;;;16.89;100.00
20793;BME280;10556;-33.662;151.094;2024-03-25T14:55:03;99443.09;;;16.86;100.00
20793;BME280;10556;-33.662;151.094;2024-03-25T15:00:07;99445.44;;;16.78;100.00
20793;BME280;10556;-33.662;151.094;2024-03-25T15:05:09;99449.47;;;16.45;100.00
20793;BME280;10556;-33.662;151.094;2024-03-25T15:10:14;99454.81;;;16.31;100.00
20793;BME280;10556;-33.662;151.094;2024-03-25T15:15:17;99453.34;;;16.16;100.00
20793;BME280;10556;-33.662;151.094;2024-03-25T15:20:20;99448.50;;;16.11;100.00
20793;BME280;10556;-33.662;151.094;2024-03-25T15:25:25;99442.78;;;16.08;100.00
20793;BME280;10556;-33.662;151.094;2024-03-25T15:30:28;99440.19;;;16.08;100.00
20793;BME280;10556;-33.662;151.094;2024-03-25T15:35:30;99430.66;;;16.21;100.00
20793;BME280;10556;-33.662;151.094;2024-03-25T15:40:35;99433.63;;;16.28;100.00
20793;BME280;10556;-33.662;151.094;2024-03-25T15:45:38;99428.59;;;16.26;100.00
20793;BME280;10556;-33.662;151.094;2024-03-25T15:50:41;99428.22;;;16.20;100.00
20793;BME280;10556;-33.662;151.094;2024-03-25T15:55:45;99431.72;;;16.19;100.00
20793;BME280;10556;-33.662;151.094;2024-03-25T16:00:48;99427.50;;;16.18;100.00
20793;BME280;10556;-33.662;151.094;2024-03-25T16:05:51;99420.88;;;16.26;100.00
20793;BME280;10556;-33.662;151.094;2024-03-25T16:10:55;99423.44;;;16.26;100.00
20793;BME280;10556;-33.662;151.094;2024-03-25T16:16:04;99417.50;;;16.26;100.00
20793;BME280;10556;-33.662;151.094;2024-03-25T16:21:15;99401.91;;;16.40;100.00
20793;BME280;10556;-33.662;151.094;2024-03-25T16:26:21;99410.53;;;16.63;100.00
20793;BME280;10556;-33.662;151.094;2024-03-25T16:31:24;99399.38;;;16.97;100.00
20793;BME280;10556;-33.662;151.094;2024-03-25T16:36:26;99401.44;;;17.36;100.00
20793;BME280;10556;-33.662;151.094;2024-03-25T16:41:31;99389.84;;;17.75;100.00
20793;BME280;10556;-33.662;151.094;2024-03-25T16:46:36;99396.81;;;17.96;100.00
20793;BME280;10556;-33.662;151.094;2024-03-25T16:51:39;99398.66;;;18.05;100.00
20793;BME280;10556;-33.662;151.094;2024-03-25T16:56:44;99397.78;;;18.26;100.00
20793;BME280;10556;-33.662;151.094;2024-03-25T17:01:47;99400.50;;;18.46;100.00
20793;BME280;10556;-33.662;151.094;2024-03-25T17:06:49;99400.94;;;18.71;100.00
20793;BME280;10556;-33.662;151.094;2024-03-25T17:11:54;99399.19;;;18.93;100.00
20793;BME280;10556;-33.662;151.094;2024-03-25T17:16:57;99400.09;;;19.12;100.00
20793;BME280;10556;-33.662;151.094;2024-03-25T17:21:59;99406.16;;;19.32;100.00
20793;BME280;10556;-33.662;151.094;2024-03-25T17:27:04;99403.84;;;19.39;100.00
20793;BME280;10556;-33.662;151.094;2024-03-25T17:32:07;99406.91;;;19.44;100.00
20793;BME280;10556;-33.662;151.094;2024-03-25T17:37:10;99401.47;;;19.47;100.00
20793;BME280;10556;-33.662;151.094;2024-03-25T17:42:14;99407.88;;;19.52;100.00
20793;BME280;10556;-33.662;151.094;2024-03-25T17:47:17;99407.03;;;19.52;100.00
20793;BME280;10556;-33.662;151.094;2024-03-25T17:52:20;99406.91;;;19.53;100.00
20793;BME280;10556;-33.662;151.094;2024-03-25T17:57:24;99407.63;;;19.55;100.00
20793;BME280;10556;-33.662;151.094;2024-03-25T18:02:27;99413.44;;;19.48;100.00
20793;BME280;10556;-33.662;151.094;2024-03-25T18:07:30;99417.94;;;19.46;100.00
20793;BME280;10556;-33.662;151.094;2024-03-25T18:12:35;99421.13;;;19.38;100.00
20793;BME280;10556;-33.662;151.094;2024-03-25T18:17:37;99424.38;;;19.31;100.00
20793;BME280;10556;-33.662;151.094;2024-03-25T18:22:40;99436.16;;;19.24;100.00
20793;BME280;10556;-33.662;151.094;2024-03-25T18:27:48;99434.66;;;19.21;100.00
20793;BME280;10556;-33.662;151.094;2024-03-25T18:32:51;99440.38;;;19.25;100.00
20793;BME280;10556;-33.662;151.094;2024-03-25T18:37:54;99439.16;;;19.29;100.00
20793;BME280;10556;-33.662;151.094;2024-03-25T18:42:59;99447.91;;;19.28;100.00
20793;BME280;10556;-33.662;151.094;2024-03-25T18:48:02;99452.25;;;19.27;100.00
20793;BME280;10556;-33.662;151.094;2024-03-25T18:53:05;99455.88;;;19.25;100.00
20793;BME280;10556;-33.662;151.094;2024-03-25T18:58:10;99466.38;;;19.23;100.00
20793;BME280;10556;-33.662;151.094;2024-03-25T19:03:13;99471.22;;;19.16;100.00
20793;BME280;10556;-33.662;151.094;2024-03-25T19:08:15;99479.75;;;19.07;100.00
20793;BME280;10556;-33.662;151.094;2024-03-25T19:13:20;99489.06;;;18.99;100.00
20793;BME280;10556;-33.662;151.094;2024-03-25T19:18:23;99484.41;;;18.93;100.00
20793;BME280;10556;-33.662;151.094;2024-03-25T19:23:25;99493.34;;;18.89;100.00
20793;BME280;10556;-33.662;151.094;2024-03-25T19:28:30;99500.28;;;18.88;100.00
20793;BME280;10556;-33.662;151.094;2024-03-25T19:33:33;99500.06;;;18.80;100.00
20793;BME280;10556;-33.662;151.094;2024-03-25T19:38:35;99498.44;;;18.79;100.00
20793;BME280;10556;-33.662;151.094;2024-03-25T19:43:40;99502.91;;;18.77;100.00
20793;BME280;10556;-33.662;151.094;2024-03-25T19:48:42;99512.69;;;18.73;100.00
20793;BME280;10556;-33.662;151.094;2024-03-25T19:53:45;99516.19;;;18.72;100.00
20793;BME280;10556;-33.662;151.094;2024-03-25T19:58:50;99508.81;;;18.68;100.00
20793;BME280;10556;-33.662;151.094;2024-03-25T20:03:52;99524.13;;;18.60;100.00
20793;BME280;10556;-33.662;151.094;2024-03-25T20:08:55;99536.41;;;18.67;100.00
20793;BME280;10556;-33.662;151.094;2024-03-25T20:14:00;99553.28;;;18.71;100.00
20793;BME280;10556;-33.662;151.094;2024-03-25T20:19:03;99555.28;;;18.68;100.00
20793;BME280;10556;-33.662;151.094;2024-03-25T20:24:06;99564.91;;;18.66;100.00
20793;BME280;10556;-33.662;151.094;2024-03-25T20:29:11;99569.84;;;18.69;100.00
20793;BME280;10556;-33.662;151.094;2024-03-25T20:34:14;99577.34;;;18.72;100.00
20793;BME280;10556;-33.662;151.094;2024-03-25T20:39:16;99577.59;;;18.69;100.00
20793;BME280;10556;-33.662;151.094;2024-03-25T20:44:21;99581.47;;;18.75;100.00
20793;BME280;10556;-33.662;151.094;2024-03-25T20:49:23;99590.09;;;18.85;100.00
20793;BME280;10556;-33.662;151.094;2024-03-25T20:54:26;99592.06;;;18.92;100.00
20793;BME280;10556;-33.662;151.094;2024-03-25T20:59:31;99601.75;;;19.00;100.00
20793;BME280;10556;-33.662;151.094;2024-03-25T21:04:33;99601.59;;;19.12;100.00
20793;BME280;10556;-33.662;151.094;2024-03-25T21:09:36;99610.69;;;19.28;100.00
20793;BME280;10556;-33.662;151.094;2024-03-25T21:14:41;99612.91;;;19.32;100.00
20793;BME280;10556;-33.662;151.094;2024-03-25T21:19:44;99622.59;;;19.40;100.00
20793;BME280;10556;-33.662;151.094;2024-03-25T21:24:47;99618.91;;;19.53;100.00
20793;BME280;10556;-33.662;151.094;2024-03-25T21:29:51;99624.84;;;19.65;100.00
20793;BME280;10556;-33.662;151.094;2024-03-25T21:34:54;99623.69;;;19.79;100.00
20793;BME280;10556;-33.662;151.094;2024-03-25T21:39:57;99624.28;;;19.92;100.00
20793;BME280;10556;-33.662;151.094;2024-03-25T21:45:01;99627.66;;;20.13;100.00
20793;BME280;10556;-33.662;151.094;2024-03-25T21:50:04;99632.50;;;20.27;100.00
20793;BME280;10556;-33.662;151.094;2024-03-25T21:55:07;99640.34;;;20.47;100.00
20793;BME280;10556;-33.662;151.094;2024-03-25T22:00:13;99643.91;;;20.55;100.00
20793;BME280;10556;-33.662;151.094;2024-03-25T22:05:16;99643.13;;;20.83;100.00
20793;BME280;10556;-33.662;151.094;2024-03-25T22:10:18;99642.09;;;21.05;100.00
20793;BME280;10556;-33.662;151.094;2024-03-25T22:15:23;99641.94;;;21.36;100.00
20793;BME280;10556;-33.662;151.094;2024-03-25T22:20:26;99637.00;;;21.61;100.00
20793;BME280;10556;-33.662;151.094;2024-03-25T22:25:28;99634.06;;;21.93;100.00
20793;BME280;10556;-33.662;151.094;2024-03-25T22:30:33;99648.16;;;22.28;100.00
20793;BME280;10556;-33.662;151.094;2024-03-25T22:35:35;99646.22;;;22.57;100.00
20793;BME280;10556;-33.662;151.094;2024-03-25T22:40:38;99647.00;;;22.40;100.00
20793;BME280;10556;-33.662;151.094;2024-03-25T22:45:53;99651.03;;;22.52;100.00
20793;BME280;10556;-33.662;151.094;2024-03-25T22:50:59;99654.06;;;22.75;100.00
20793;BME280;10556;-33.662;151.094;2024-03-25T22:56:02;99653.72;;;23.58;100.00
20793;BME280;10556;-33.662;151.094;2024-03-25T23:01:08;99650.78;;;24.47;100.00
20793;BME280;10556;-33.662;151.094;2024-03-25T23:06:11;99660.94;;;23.98;100.00
20793;BME280;10556;-33.662;151.094;2024-03-25T23:11:14;99670.97;;;23.85;100.00
20793;BME280;10556;-33.662;151.094;2024-03-25T23:16:19;99674.38;;;24.11;100.00
20793;BME280;10556;-33.662;151.094;2024-03-25T23:21:21;99670.59;;;24.06;100.00
20793;BME280;10556;-33.662;151.094;2024-03-25T23:26:24;99669.00;;;24.13;100.00
20793;BME280;10556;-33.662;151.094;2024-03-25T23:31:29;99664.69;;;24.21;100.00
20793;BME280;10556;-33.662;151.094;2024-03-25T23:36:31;99661.31;;;24.29;100.00
20793;BME280;10556;-33.662;151.094;2024-03-25T23:41:34;99665.56;;;24.38;100.00
20793;BME280;10556;-33.662;151.094;2024-03-25T23:46:38;99659.50;;;24.71;100.00
20793;BME280;10556;-33.662;151.094;2024-03-25T23:51:41;99660.25;;;25.38;100.00
20793;BME280;10556;-33.662;151.094;2024-03-25T23:56:44;99650.53;;;26.89;100.00
